METAR Formatted Surface Weather Observation
Issued by NWS

Home | Current Version | Previous Version | Text Only | Print | Product List | Glossary On
Versions: 1 2 3 4 5 6 7 8 9 10 11 12 13 14 15 16 17 18 19 20 21 22 23 24 25 26 27 28 29 30 31 32 33
860
SAUS46 KSTO 282357 COR
MTRBLU
METAR KBLU 282352Z AUTO 23005KT 10SM CLR 18/00 A3004 RMK AO2 SLP108
T01780000 10189 20161 55001 TSNO



USA.gov is the U.S. government's official web portal to all federal, state and local government web resources and services.